METAR AND TAF INFORMATION
METAR FOR BIKF
ADDS - METARS form results

(1054 UTC 28 July 2021)
Data provider http://aviationweather.gov/metar/data/
 
METAR text: BIKF 281030Z 02012KT CAVOK 13/10 Q1012
Conditions at: BIKF (KEFLAVIK (CIV/MI, IS) observed 1030 UTC 28 July 2021
Temperature: 13.0°C (55°F)
Dewpoint: 10.0°C (50°F) [RH = 82%]
Pressure (altimeter): 29.88 inches Hg (1012.0 mb)
Winds: from the NNE (20 degrees) at 14 MPH (12 knots; 6.2 m/s)
Visibility: 6 or more miles (10+ km)
Ceiling: ceiling and visibility are OK
Clouds: unknown
Weather: no significant weather observed at this time

METAR text: BIKF 281000Z 03013KT CAVOK 13/10 Q1012
Conditions at: BIKF (KEFLAVIK (CIV/MI, IS) observed 1000 UTC 28 July 2021
Temperature: 13.0°C (55°F)
Dewpoint: 10.0°C (50°F) [RH = 82%]
Pressure (altimeter): 29.88 inches Hg (1012.0 mb)
Winds: from the NNE (30 degrees) at 15 MPH (13 knots; 6.7 m/s)
Visibility: 6 or more miles (10+ km)
Ceiling: ceiling and visibility are OK
Clouds: unknown
Weather: no significant weather observed at this time

Forecast for: BIKF (KEFLAVIK (CIV/MI, IS)
Text: TAF BIKF 281051Z 2812/2912 01018KT 9999 FEW025 TX16/2815Z TN10/2903Z
Forecast period: 1200 UTC 28 July 2021 to 0500 UTC 29 July 2021
Forecast type: FROM: standard forecast or significant change
Winds: from the N (10 degrees) at 21 MPH (18 knots; 9.3 m/s)
Visibility: 6 or more miles (10+ km)
Ceiling: at least 12,000 feet AGL
Clouds: few clouds at 2500 feet AGL
Weather: no significant weather forecast for this period
Text: BECMG 2905/2907 01008KT
Forecast period: 0500 to 1200 UTC 29 July 2021
Forecast type: BECOMING: Conditions expected to become as follows by 0700 UTC 29 July 2021
Winds: from the N (10 degrees) at 9 MPH (8 knots; 4.1 m/s)
Visibility: 6 or more miles (10+ km)
Ceiling: at least 12,000 feet AGL
Clouds: few clouds at 2500 feet AGL
Weather: no significant weather forecast for this period

 AIRPORT MAP

 RUNWAY INFORMATION
Runway 02 Runway length 10019 ft Runway width 197 ft
Runway elevation 137 ft Runway displaced threshold 19 ft Runway heading 360
Runway 20 Runway length 10019 ft Runway width 197 ft
Runway elevation 163 ft Runway displaced threshold 19 ft Runway heading 180
Runway 11 Runway length 10056 ft Runway width 197 ft
Runway elevation 111 ft Runway displaced threshold 43 ft Runway heading 90
Runway 29 Runway length 10056 ft Runway width 197 ft
Runway elevation 171 ft Runway displaced threshold 43 ft Runway heading 270

 AIRPORT FREQUENCIES
Type A/G Name AIR GND Frequency 131.9 MHZ
Type APP Name APP Frequency 119.3 MHZ
Type ATIS Name ATIS Frequency 128.3 MHZ
Type DEP Name DEP Frequency 119.3 MHZ
Type GND Name GND Frequency 121.9 MHZ
Type OPS Name BASE OPS Frequency 129 MHZ
Type PMSV Name PMSV METR Frequency 125 MHZ
Type TWR Name TWR Frequency 118.3 MHZ

 AIRPORT NEAR NAVIGATION AIDS
Type VORTAC Name Keflavik Frequency 112000 KHZ
Type NDB Name Keflavik Frequency 392 KHZ
Type NDB Name Oscar Kilo Frequency 364 KHZ